Seas 3 — A8ZT5 — position and weather

sailwx.info

Track history (hours):
 
Tides and Currents Weather Stations Pressure Air Temp Water Temp Dewpoint Dewpoint Depression Visibility Wind Speed Wind Dir Waves Ship Positions

Seas 3

Last reported at 2018-Feb-13 15:39 UTC. Time now 2018-Feb-20 17:02 UTC.
Position S 29°08' E 032°27'.

Length 190 m; draft 10.5 m.

Type: Ship. MMSI: 636015295.

Date/timePositionNaut miles runAvg speedWind from/ knotsBaromVisibWave heightAir tempDewpointWater temp
2018-Feb-13 15:39S 29°08' E 032°27'410.7
2018-Feb-13 15:17S 29°10' E 032°23'310.4
2018-Feb-13 14:57S 29°12' E 032°20'610.1
2018-Feb-13 14:19S 29°15' E 032°13'4 9.6
2018-Feb-13 13:55S 29°17' E 032°10'6 9.4
2018-Feb-13 13:18S 29°20' E 032°04'3 9.1
2018-Feb-13 13:00S 29°22' E 032°01'4 8.8
2018-Feb-13 12:30S 29°24' E 031°57'5 9.2
2018-Feb-13 12:00S 29°26' E 031°52'611.4
2018-Feb-13 11:30S 29°29' E 031°47'612.6
2018-Feb-13 11:00S 29°33' E 031°41'612.6
2018-Feb-13 10:30S 29°36' E 031°34'612.5
2018-Feb-13 10:00S 29°39' E 031°28'612.7
2018-Feb-13 09:30S 29°42' E 031°22'612.7
2018-Feb-13 09:00S 29°46' E 031°16'611.9
2018-Feb-13 08:30S 29°48' E 031°10'7 9.6
2018-Feb-13 07:49S 29°52' E 031°03'1 3.2
2018-Feb-13 07:31S 29°52' E 031°02'0 0.2
2018-Feb-13 06:59S 29°52' E 031°02'0 0.0
2018-Feb-13 06:29S 29°52' E 031°02'0 0.0
2018-Feb-13 05:59S 29°52' E 031°02'0 0.0
2018-Feb-13 05:29S 29°52' E 031°02'0 0.0
2018-Feb-13 04:59S 29°52' E 031°02'0 0.0
2018-Feb-13 04:29S 29°52' E 031°02'0 0.0
2018-Feb-13 03:59S 29°52' E 031°02'0 0.0
2018-Feb-13 03:29S 29°52' E 031°02'0 0.0
2018-Feb-13 02:59S 29°52' E 031°02'0 0.0
2018-Feb-13 02:29S 29°52' E 031°02'0 0.0
2018-Feb-13 01:59S 29°52' E 031°02'0 0.0
2018-Feb-13 01:29S 29°52' E 031°02'0 0.0
2018-Feb-13 00:53S 29°52' E 031°02'0 0.0
2018-Feb-13 00:29S 29°52' E 031°02'0 0.0
2018-Feb-12 23:59S 29°52' E 031°02'0 0.0
2018-Feb-12 23:29S 29°52' E 031°02'0 0.0
2018-Feb-12 22:53S 29°52' E 031°02'0 0.0
2018-Feb-12 22:29S 29°52' E 031°02'0 0.0
2018-Feb-12 21:59S 29°52' E 031°02'0 0.0
2018-Feb-12 21:29S 29°52' E 031°02'0 0.0
2018-Feb-12 20:59S 29°52' E 031°02'0 0.0
2018-Feb-12 20:23S 29°52' E 031°02'0 0.0
2018-Feb-12 19:59S 29°52' E 031°02'0 0.0
2018-Feb-12 19:29S 29°52' E 031°02'0 0.0
2018-Feb-12 18:59S 29°52' E 031°02'0 0.0
2018-Feb-12 18:29S 29°52' E 031°02'0 0.0
2018-Feb-12 17:59S 29°52' E 031°02'0 0.0
2018-Feb-12 17:29S 29°52' E 031°02'0 0.0
2018-Feb-12 16:59S 29°52' E 031°02'0 0.0
2018-Feb-12 16:29S 29°52' E 031°02'0 0.0
2018-Feb-12 15:59S 29°52' E 031°02'0 0.0
2018-Feb-12 15:17S 29°52' E 031°02'0 0.0
2018-Feb-12 14:59S 29°52' E 031°02'0 0.7
2018-Feb-12 14:30S 29°53' E 031°03'3 6.5
2018-Feb-12 14:00S 29°50' E 031°05'3 5.9
2018-Feb-12 13:30S 29°48' E 031°07'2 3.4
2018-Feb-12 13:00S 29°49' E 031°08'4 7.5
2018-Feb-12 12:30S 29°52' E 031°11'2 4.5
2018-Feb-12 12:00S 29°54' E 031°12'0 0.7
2018-Feb-12 11:30S 29°54' E 031°12'0 0.9
2018-Feb-12 11:00S 29°54' E 031°12'0 1.0
2018-Feb-12 10:30S 29°54' E 031°12'0 0.7
2018-Feb-12 10:00S 29°54' E 031°12'0 0.8
2018-Feb-12 09:30S 29°54' E 031°13'0 0.7
2018-Feb-12 09:00S 29°54' E 031°13'0 0.7
2018-Feb-12 08:30S 29°54' E 031°14'0 0.5
2018-Feb-12 07:48S 29°54' E 031°14'0 0.5
2018-Feb-12 07:30S 29°54' E 031°14'1 1.3
2018-Feb-12 07:00S 29°53' E 031°14'2 3.8
2018-Feb-12 06:30S 29°54' E 031°12'3 5.9
2018-Feb-12 06:00S 29°57' E 031°11'510.2
2018-Feb-12 05:30S 30°02' E 031°11'4 8.4
2018-Feb-12 05:00S 30°06' E 031°10'2 3.4
2018-Feb-12 04:30S 30°08' E 031°09'510.9
2018-Feb-12 04:00S 30°13' E 031°08'612.4
2018-Feb-12 03:30S 30°19' E 031°06'712.4
2018-Feb-12 02:58S 30°25' E 031°03'612.3
2018-Feb-12 02:30S 30°30' E 030°60'712.6
2018-Feb-12 01:59S 30°36' E 030°56'812.0
2018-Feb-12 01:21S 30°43' E 030°52'  
Track history (hours):
 
Tides and Currents Weather Stations Pressure Air Temp Water Temp Dewpoint Dewpoint Depression Visibility Wind Speed Wind Dir Waves Ship Positions

Seas 3

Last reported at 2018-Feb-13 15:39 UTC. Time now 2018-Feb-20 17:02 UTC.
Position S 29°08' E 032°27'.

Length 190 m; draft 10.5 m.

Type: Ship. MMSI: 636015295.

Date/timePositionNaut miles runAvg speedWind from/ knotsBaromVisibWave heightAir tempDewpointWater temp
2018-Feb-13 15:39S 29°08' E 032°27'410.7
2018-Feb-13 15:17S 29°10' E 032°23'310.4
2018-Feb-13 14:57S 29°12' E 032°20'610.1
2018-Feb-13 14:19S 29°15' E 032°13'4 9.6
2018-Feb-13 13:55S 29°17' E 032°10'6 9.4
2018-Feb-13 13:18S 29°20' E 032°04'3 9.1
2018-Feb-13 13:00S 29°22' E 032°01'4 8.8
2018-Feb-13 12:30S 29°24' E 031°57'5 9.2
2018-Feb-13 12:00S 29°26' E 031°52'611.4
2018-Feb-13 11:30S 29°29' E 031°47'612.6
2018-Feb-13 11:00S 29°33' E 031°41'612.6
2018-Feb-13 10:30S 29°36' E 031°34'612.5
2018-Feb-13 10:00S 29°39' E 031°28'612.7
2018-Feb-13 09:30S 29°42' E 031°22'612.7
2018-Feb-13 09:00S 29°46' E 031°16'611.9
2018-Feb-13 08:30S 29°48' E 031°10'7 9.6
2018-Feb-13 07:49S 29°52' E 031°03'1 3.2
2018-Feb-13 07:31S 29°52' E 031°02'0 0.2
2018-Feb-13 06:59S 29°52' E 031°02'0 0.0
2018-Feb-13 06:29S 29°52' E 031°02'0 0.0
2018-Feb-13 05:59S 29°52' E 031°02'0 0.0
2018-Feb-13 05:29S 29°52' E 031°02'0 0.0
2018-Feb-13 04:59S 29°52' E 031°02'0 0.0
2018-Feb-13 04:29S 29°52' E 031°02'0 0.0
2018-Feb-13 03:59S 29°52' E 031°02'0 0.0
2018-Feb-13 03:29S 29°52' E 031°02'0 0.0
2018-Feb-13 02:59S 29°52' E 031°02'0 0.0
2018-Feb-13 02:29S 29°52' E 031°02'0 0.0
2018-Feb-13 01:59S 29°52' E 031°02'0 0.0
2018-Feb-13 01:29S 29°52' E 031°02'0 0.0
2018-Feb-13 00:53S 29°52' E 031°02'0 0.0
2018-Feb-13 00:29S 29°52' E 031°02'0 0.0
2018-Feb-12 23:59S 29°52' E 031°02'0 0.0
2018-Feb-12 23:29S 29°52' E 031°02'0 0.0
2018-Feb-12 22:53S 29°52' E 031°02'0 0.0
2018-Feb-12 22:29S 29°52' E 031°02'0 0.0
2018-Feb-12 21:59S 29°52' E 031°02'0 0.0
2018-Feb-12 21:29S 29°52' E 031°02'0 0.0
2018-Feb-12 20:59S 29°52' E 031°02'0 0.0
2018-Feb-12 20:23S 29°52' E 031°02'0 0.0
2018-Feb-12 19:59S 29°52' E 031°02'0 0.0
2018-Feb-12 19:29S 29°52' E 031°02'0 0.0
2018-Feb-12 18:59S 29°52' E 031°02'0 0.0
2018-Feb-12 18:29S 29°52' E 031°02'0 0.0
2018-Feb-12 17:59S 29°52' E 031°02'0 0.0
2018-Feb-12 17:29S 29°52' E 031°02'0 0.0
2018-Feb-12 16:59S 29°52' E 031°02'0 0.0
2018-Feb-12 16:29S 29°52' E 031°02'0 0.0
2018-Feb-12 15:59S 29°52' E 031°02'0 0.0
2018-Feb-12 15:17S 29°52' E 031°02'0 0.0
2018-Feb-12 14:59S 29°52' E 031°02'0 0.7
2018-Feb-12 14:30S 29°53' E 031°03'3 6.5
2018-Feb-12 14:00S 29°50' E 031°05'3 5.9
2018-Feb-12 13:30S 29°48' E 031°07'2 3.4
2018-Feb-12 13:00S 29°49' E 031°08'4 7.5
2018-Feb-12 12:30S 29°52' E 031°11'2 4.5
2018-Feb-12 12:00S 29°54' E 031°12'0 0.7
2018-Feb-12 11:30S 29°54' E 031°12'0 0.9
2018-Feb-12 11:00S 29°54' E 031°12'0 1.0
2018-Feb-12 10:30S 29°54' E 031°12'0 0.7
2018-Feb-12 10:00S 29°54' E 031°12'0 0.8
2018-Feb-12 09:30S 29°54' E 031°13'0 0.7
2018-Feb-12 09:00S 29°54' E 031°13'0 0.7
2018-Feb-12 08:30S 29°54' E 031°14'0 0.5
2018-Feb-12 07:48S 29°54' E 031°14'0 0.5
2018-Feb-12 07:30S 29°54' E 031°14'1 1.3
2018-Feb-12 07:00S 29°53' E 031°14'2 3.8
2018-Feb-12 06:30S 29°54' E 031°12'3 5.9
2018-Feb-12 06:00S 29°57' E 031°11'510.2
2018-Feb-12 05:30S 30°02' E 031°11'4 8.4
2018-Feb-12 05:00S 30°06' E 031°10'2 3.4
2018-Feb-12 04:30S 30°08' E 031°09'510.9
2018-Feb-12 04:00S 30°13' E 031°08'612.4
2018-Feb-12 03:30S 30°19' E 031°06'712.4
2018-Feb-12 02:58S 30°25' E 031°03'612.3
2018-Feb-12 02:30S 30°30' E 030°60'712.6
2018-Feb-12 01:59S 30°36' E 030°56'812.0
2018-Feb-12 01:21S 30°43' E 030°52'  

Dump ship's entire track history